sensor_id;sensor_type;location;lat;lon;timestamp;temperature;humidity
55828;DHT22;41758;51.992;5.890;2023-07-20T00:01:22;22.10;69.00
55828;DHT22;41758;51.992;5.890;2023-07-20T00:03:47;22.00;69.10
55828;DHT22;41758;51.992;5.890;2023-07-20T00:06:21;22.00;69.10
55828;DHT22;41758;51.992;5.890;2023-07-20T00:08:47;21.90;69.10
55828;DHT22;41758;51.992;5.890;2023-07-20T00:11:13;21.90;69.10
55828;DHT22;41758;51.992;5.890;2023-07-20T00:13:40;21.80;69.10
55828;DHT22;41758;51.992;5.890;2023-07-20T00:16:06;21.80;69.00
55828;DHT22;41758;51.992;5.890;2023-07-20T00:18:32;21.80;69.10
55828;DHT22;41758;51.992;5.890;2023-07-20T00:20:58;21.70;69.10
55828;DHT22;41758;51.992;5.890;2023-07-20T00:23:25;21.70;69.10
55828;DHT22;41758;51.992;5.890;2023-07-20T00:25:51;21.60;69.20
55828;DHT22;41758;51.992;5.890;2023-07-20T00:28:17;21.60;69.20
55828;DHT22;41758;51.992;5.890;2023-07-20T00:30:43;21.50;69.20
55828;DHT22;41758;51.992;5.890;2023-07-20T00:33:16;21.50;69.10
55828;DHT22;41758;51.992;5.890;2023-07-20T00:35:42;21.40;69.10
55828;DHT22;41758;51.992;5.890;2023-07-20T00:38:08;21.40;69.20
55828;DHT22;41758;51.992;5.890;2023-07-20T00:40:37;21.40;69.30
55828;DHT22;41758;51.992;5.890;2023-07-20T00:43:03;21.40;69.30
55828;DHT22;41758;51.992;5.890;2023-07-20T00:45:30;21.40;69.40
55828;DHT22;41758;51.992;5.890;2023-07-20T00:47:56;21.30;69.50
55828;DHT22;41758;51.992;5.890;2023-07-20T00:50:27;21.30;69.50
55828;DHT22;41758;51.992;5.890;2023-07-20T00:52:54;21.40;69.60
55828;DHT22;41758;51.992;5.890;2023-07-20T00:55:20;21.40;69.70
55828;DHT22;41758;51.992;5.890;2023-07-20T00:57:47;21.40;69.70
55828;DHT22;41758;51.992;5.890;2023-07-20T01:00:13;21.50;69.60
55828;DHT22;41758;51.992;5.890;2023-07-20T01:02:39;21.50;69.50
55828;DHT22;41758;51.992;5.890;2023-07-20T01:05:06;21.50;69.40
55828;DHT22;41758;51.992;5.890;2023-07-20T01:07:38;21.50;69.30
55828;DHT22;41758;51.992;5.890;2023-07-20T01:12:40;21.40;69.10
55828;DHT22;41758;51.992;5.890;2023-07-20T01:15:07;21.40;69.00
55828;DHT22;41758;51.992;5.890;2023-07-20T01:17:34;21.40;69.00
55828;DHT22;41758;51.992;5.890;2023-07-20T01:19:59;21.30;69.00
55828;DHT22;41758;51.992;5.890;2023-07-20T01:29:09;21.30;69.10
55828;DHT22;41758;51.992;5.890;2023-07-20T01:31:32;21.30;69.10
55828;DHT22;41758;51.992;5.890;2023-07-20T01:34:00;21.30;69.10
55828;DHT22;41758;51.992;5.890;2023-07-20T01:36:29;21.20;69.20
55828;DHT22;41758;51.992;5.890;2023-07-20T01:38:56;21.20;69.30
55828;DHT22;41758;51.992;5.890;2023-07-20T01:41:22;21.20;69.40
55828;DHT22;41758;51.992;5.890;2023-07-20T01:43:48;21.20;69.40
55828;DHT22;41758;51.992;5.890;2023-07-20T01:46:15;21.30;69.40
55828;DHT22;41758;51.992;5.890;2023-07-20T01:48:41;21.30;69.50
55828;DHT22;41758;51.992;5.890;2023-07-20T01:51:08;21.30;69.40
55828;DHT22;41758;51.992;5.890;2023-07-20T01:53:33;21.30;69.30
55828;DHT22;41758;51.992;5.890;2023-07-20T01:55:59;21.30;69.20
55828;DHT22;41758;51.992;5.890;2023-07-20T01:58:25;21.20;69.10
55828;DHT22;41758;51.992;5.890;2023-07-20T02:00:51;21.20;68.90
55828;DHT22;41758;51.992;5.890;2023-07-20T02:03:18;21.10;68.90
55828;DHT22;41758;51.992;5.890;2023-07-20T02:05:47;21.10;69.00
55828;DHT22;41758;51.992;5.890;2023-07-20T02:08:12;21.10;69.00
55828;DHT22;41758;51.992;5.890;2023-07-20T02:10:39;21.10;69.00
55828;DHT22;41758;51.992;5.890;2023-07-20T02:13:04;21.10;69.00
55828;DHT22;41758;51.992;5.890;2023-07-20T02:15:30;21.10;69.00
55828;DHT22;41758;51.992;5.890;2023-07-20T02:17:56;21.00;69.00
55828;DHT22;41758;51.992;5.890;2023-07-20T02:20:22;21.10;69.00
55828;DHT22;41758;51.992;5.890;2023-07-20T02:22:47;21.10;69.00
55828;DHT22;41758;51.992;5.890;2023-07-20T02:25:13;21.10;69.00
55828;DHT22;41758;51.992;5.890;2023-07-20T02:27:39;21.00;68.90
55828;DHT22;41758;51.992;5.890;2023-07-20T02:30:05;21.00;68.80
55828;DHT22;41758;51.992;5.890;2023-07-20T02:32:31;21.00;68.80
55828;DHT22;41758;51.992;5.890;2023-07-20T02:35:00;21.00;68.70
55828;DHT22;41758;51.992;5.890;2023-07-20T02:37:26;20.90;68.70
55828;DHT22;41758;51.992;5.890;2023-07-20T02:39:51;20.90;68.60
55828;DHT22;41758;51.992;5.890;2023-07-20T02:42:17;20.80;68.60
55828;DHT22;41758;51.992;5.890;2023-07-20T02:44:43;20.80;68.60
55828;DHT22;41758;51.992;5.890;2023-07-20T02:47:09;20.80;68.60
55828;DHT22;41758;51.992;5.890;2023-07-20T02:49:35;20.70;68.60
55828;DHT22;41758;51.992;5.890;2023-07-20T02:52:00;20.70;68.60
55828;DHT22;41758;51.992;5.890;2023-07-20T02:54:28;20.60;68.60
55828;DHT22;41758;51.992;5.890;2023-07-20T02:56:54;20.60;68.60
55828;DHT22;41758;51.992;5.890;2023-07-20T02:59:19;20.50;68.70
55828;DHT22;41758;51.992;5.890;2023-07-20T03:01:45;20.50;68.70
55828;DHT22;41758;51.992;5.890;2023-07-20T03:04:11;20.40;68.70
55828;DHT22;41758;51.992;5.890;2023-07-20T03:06:37;20.40;68.70
55828;DHT22;41758;51.992;5.890;2023-07-20T03:09:03;20.40;68.70
55828;DHT22;41758;51.992;5.890;2023-07-20T03:11:29;20.30;68.70
55828;DHT22;41758;51.992;5.890;2023-07-20T03:13:57;20.30;68.80
55828;DHT22;41758;51.992;5.890;2023-07-20T03:16:23;20.20;68.80
55828;DHT22;41758;51.992;5.890;2023-07-20T03:18:51;20.20;68.80
55828;DHT22;41758;51.992;5.890;2023-07-20T03:21:17;20.10;68.80
55828;DHT22;41758;51.992;5.890;2023-07-20T03:23:43;20.10;68.80
55828;DHT22;41758;51.992;5.890;2023-07-20T03:26:10;20.10;68.90
55828;DHT22;41758;51.992;5.890;2023-07-20T03:28:36;20.10;68.90
55828;DHT22;41758;51.992;5.890;2023-07-20T03:31:03;20.00;68.90
55828;DHT22;41758;51.992;5.890;2023-07-20T03:33:32;20.00;68.90
55828;DHT22;41758;51.992;5.890;2023-07-20T03:35:58;20.00;68.90
55828;DHT22;41758;51.992;5.890;2023-07-20T03:38:25;19.90;68.90
55828;DHT22;41758;51.992;5.890;2023-07-20T03:40:52;19.90;68.90
55828;DHT22;41758;51.992;5.890;2023-07-20T03:43:18;19.90;68.80
55828;DHT22;41758;51.992;5.890;2023-07-20T03:45:45;19.90;68.90
55828;DHT22;41758;51.992;5.890;2023-07-20T03:48:15;19.90;68.80
55828;DHT22;41758;51.992;5.890;2023-07-20T03:50:43;19.90;68.80
55828;DHT22;41758;51.992;5.890;2023-07-20T03:53:09;19.90;68.80
55828;DHT22;41758;51.992;5.890;2023-07-20T03:55:35;19.90;68.80
55828;DHT22;41758;51.992;5.890;2023-07-20T03:58:01;19.90;68.70
55828;DHT22;41758;51.992;5.890;2023-07-20T04:00:27;19.80;68.70
55828;DHT22;41758;51.992;5.890;2023-07-20T04:02:53;19.80;68.70
55828;DHT22;41758;51.992;5.890;2023-07-20T04:05:19;19.80;68.70
55828;DHT22;41758;51.992;5.890;2023-07-20T04:07:45;19.70;68.70
55828;DHT22;41758;51.992;5.890;2023-07-20T04:10:11;19.70;68.80
55828;DHT22;41758;51.992;5.890;2023-07-20T04:12:37;19.70;68.80
55828;DHT22;41758;51.992;5.890;2023-07-20T04:15:03;19.70;68.90
55828;DHT22;41758;51.992;5.890;2023-07-20T04:17:29;19.70;68.90
55828;DHT22;41758;51.992;5.890;2023-07-20T04:19:55;19.60;68.90
55828;DHT22;41758;51.992;5.890;2023-07-20T04:22:22;19.70;68.90
55828;DHT22;41758;51.992;5.890;2023-07-20T04:24:48;19.70;69.00
55828;DHT22;41758;51.992;5.890;2023-07-20T04:27:15;19.70;69.00
55828;DHT22;41758;51.992;5.890;2023-07-20T04:29:41;19.70;69.00
55828;DHT22;41758;51.992;5.890;2023-07-20T04:32:07;19.70;69.00
55828;DHT22;41758;51.992;5.890;2023-07-20T04:34:33;19.70;69.00
55828;DHT22;41758;51.992;5.890;2023-07-20T04:37:06;19.70;69.00
55828;DHT22;41758;51.992;5.890;2023-07-20T04:39:31;19.70;69.00
55828;DHT22;41758;51.992;5.890;2023-07-20T04:42:00;19.70;69.00
55828;DHT22;41758;51.992;5.890;2023-07-20T04:44:26;19.70;69.00
55828;DHT22;41758;51.992;5.890;2023-07-20T04:46:52;19.70;69.10
55828;DHT22;41758;51.992;5.890;2023-07-20T04:49:18;19.70;69.10
55828;DHT22;41758;51.992;5.890;2023-07-20T04:51:45;19.80;69.10
55828;DHT22;41758;51.992;5.890;2023-07-20T04:54:11;19.80;69.20
55828;DHT22;41758;51.992;5.890;2023-07-20T04:56:37;19.80;69.20
55828;DHT22;41758;51.992;5.890;2023-07-20T04:59:07;19.80;69.20
55828;DHT22;41758;51.992;5.890;2023-07-20T05:01:32;19.80;69.30
55828;DHT22;41758;51.992;5.890;2023-07-20T05:03:58;19.90;69.30
55828;DHT22;41758;51.992;5.890;2023-07-20T05:06:24;19.80;69.40
55828;DHT22;41758;51.992;5.890;2023-07-20T05:08:50;19.80;69.40
55828;DHT22;41758;51.992;5.890;2023-07-20T05:11:16;19.90;69.40
55828;DHT22;41758;51.992;5.890;2023-07-20T05:13:42;19.80;69.50
55828;DHT22;41758;51.992;5.890;2023-07-20T05:16:07;19.90;69.50
55828;DHT22;41758;51.992;5.890;2023-07-20T05:18:34;19.80;69.60
55828;DHT22;41758;51.992;5.890;2023-07-20T05:21:00;19.90;69.60
55828;DHT22;41758;51.992;5.890;2023-07-20T05:23:25;19.90;69.60
55828;DHT22;41758;51.992;5.890;2023-07-20T05:25:55;19.90;69.60
55828;DHT22;41758;51.992;5.890;2023-07-20T05:28:22;20.00;69.60
55828;DHT22;41758;51.992;5.890;2023-07-20T05:30:48;20.00;69.70
55828;DHT22;41758;51.992;5.890;2023-07-20T05:33:14;20.00;69.80
55828;DHT22;41758;51.992;5.890;2023-07-20T05:35:40;20.00;69.80
55828;DHT22;41758;51.992;5.890;2023-07-20T05:38:05;20.10;69.90
55828;DHT22;41758;51.992;5.890;2023-07-20T05:40:32;20.10;70.00
55828;DHT22;41758;51.992;5.890;2023-07-20T05:42:58;20.30;70.10
55828;DHT22;41758;51.992;5.890;2023-07-20T05:45:24;20.40;70.20
55828;DHT22;41758;51.992;5.890;2023-07-20T05:47:50;20.40;70.30
55828;DHT22;41758;51.992;5.890;2023-07-20T05:50:15;20.60;70.30
55828;DHT22;41758;51.992;5.890;2023-07-20T05:52:41;20.70;70.30
55828;DHT22;41758;51.992;5.890;2023-07-20T05:55:07;20.80;70.30
55828;DHT22;41758;51.992;5.890;2023-07-20T05:57:33;20.90;70.20
55828;DHT22;41758;51.992;5.890;2023-07-20T05:59:59;20.90;70.10
55828;DHT22;41758;51.992;5.890;2023-07-20T06:02:25;20.90;70.00
55828;DHT22;41758;51.992;5.890;2023-07-20T06:04:51;21.00;69.80
55828;DHT22;41758;51.992;5.890;2023-07-20T06:07:16;21.00;69.80
55828;DHT22;41758;51.992;5.890;2023-07-20T06:09:42;21.00;69.70
55828;DHT22;41758;51.992;5.890;2023-07-20T06:12:08;21.00;69.70
55828;DHT22;41758;51.992;5.890;2023-07-20T06:14:35;21.10;69.70
55828;DHT22;41758;51.992;5.890;2023-07-20T06:17:00;21.10;69.70
55828;DHT22;41758;51.992;5.890;2023-07-20T06:19:26;21.10;69.50
55828;DHT22;41758;51.992;5.890;2023-07-20T06:21:52;21.10;69.50
55828;DHT22;41758;51.992;5.890;2023-07-20T06:24:18;21.10;69.40
55828;DHT22;41758;51.992;5.890;2023-07-20T06:26:44;21.10;69.50
55828;DHT22;41758;51.992;5.890;2023-07-20T06:29:09;21.10;69.50
55828;DHT22;41758;51.992;5.890;2023-07-20T06:31:36;21.10;69.50
55828;DHT22;41758;51.992;5.890;2023-07-20T06:34:02;21.10;69.50
55828;DHT22;41758;51.992;5.890;2023-07-20T06:36:28;21.20;69.50
55828;DHT22;41758;51.992;5.890;2023-07-20T06:38:55;21.20;69.50
55828;DHT22;41758;51.992;5.890;2023-07-20T06:41:21;21.20;69.40
55828;DHT22;41758;51.992;5.890;2023-07-20T06:43:48;21.30;69.40
55828;DHT22;41758;51.992;5.890;2023-07-20T06:46:14;21.30;69.40
55828;DHT22;41758;51.992;5.890;2023-07-20T06:48:39;21.30;69.40
55828;DHT22;41758;51.992;5.890;2023-07-20T06:51:05;21.30;69.40
55828;DHT22;41758;51.992;5.890;2023-07-20T06:53:31;21.30;69.30
55828;DHT22;41758;51.992;5.890;2023-07-20T06:55:57;21.30;69.30
55828;DHT22;41758;51.992;5.890;2023-07-20T06:58:25;21.30;69.30
55828;DHT22;41758;51.992;5.890;2023-07-20T07:00:51;21.40;69.30
55828;DHT22;41758;51.992;5.890;2023-07-20T07:03:17;21.30;69.20
55828;DHT22;41758;51.992;5.890;2023-07-20T07:05:44;21.30;69.40
55828;DHT22;41758;51.992;5.890;2023-07-20T07:08:12;21.40;69.40
55828;DHT22;41758;51.992;5.890;2023-07-20T07:10:38;21.40;69.40
55828;DHT22;41758;51.992;5.890;2023-07-20T07:13:04;21.50;69.30
55828;DHT22;41758;51.992;5.890;2023-07-20T07:15:30;21.50;69.20
55828;DHT22;41758;51.992;5.890;2023-07-20T07:17:55;21.50;69.10
55828;DHT22;41758;51.992;5.890;2023-07-20T07:20:22;21.60;68.70
55828;DHT22;41758;51.992;5.890;2023-07-20T07:22:50;21.60;68.70
55828;DHT22;41758;51.992;5.890;2023-07-20T07:25:16;21.60;68.80
55828;DHT22;41758;51.992;5.890;2023-07-20T07:27:42;21.70;68.90
55828;DHT22;41758;51.992;5.890;2023-07-20T07:30:08;21.80;68.90
55828;DHT22;41758;51.992;5.890;2023-07-20T07:32:33;21.80;68.90
55828;DHT22;41758;51.992;5.890;2023-07-20T07:34:59;21.90;69.00
55828;DHT22;41758;51.992;5.890;2023-07-20T07:37:26;22.00;69.20
55828;DHT22;41758;51.992;5.890;2023-07-20T07:39:51;22.10;69.20
55828;DHT22;41758;51.992;5.890;2023-07-20T07:42:17;22.30;69.20
55828;DHT22;41758;51.992;5.890;2023-07-20T07:44:44;22.40;69.20
55828;DHT22;41758;51.992;5.890;2023-07-20T07:47:10;22.50;69.00
55828;DHT22;41758;51.992;5.890;2023-07-20T07:49:36;22.60;68.70
55828;DHT22;41758;51.992;5.890;2023-07-20T07:52:02;22.60;68.20
55828;DHT22;41758;51.992;5.890;2023-07-20T07:54:28;22.60;68.00
55828;DHT22;41758;51.992;5.890;2023-07-20T07:56:54;22.60;67.70
55828;DHT22;41758;51.992;5.890;2023-07-20T07:59:20;22.60;67.40
55828;DHT22;41758;51.992;5.890;2023-07-20T08:01:46;22.50;67.10
55828;DHT22;41758;51.992;5.890;2023-07-20T08:04:11;22.50;67.20
55828;DHT22;41758;51.992;5.890;2023-07-20T08:06:38;22.50;67.30
55828;DHT22;41758;51.992;5.890;2023-07-20T08:09:04;22.60;67.40
55828;DHT22;41758;51.992;5.890;2023-07-20T08:11:30;22.60;67.20
55828;DHT22;41758;51.992;5.890;2023-07-20T08:14:00;22.70;67.40
55828;DHT22;41758;51.992;5.890;2023-07-20T08:16:26;22.80;67.60
55828;DHT22;41758;51.992;5.890;2023-07-20T08:18:52;22.90;67.60
55828;DHT22;41758;51.992;5.890;2023-07-20T08:21:18;23.00;67.60
55828;DHT22;41758;51.992;5.890;2023-07-20T08:23:44;23.20;67.40
55828;DHT22;41758;51.992;5.890;2023-07-20T08:26:09;23.20;67.10
55828;DHT22;41758;51.992;5.890;2023-07-20T08:28:35;23.30;67.10
55828;DHT22;41758;51.992;5.890;2023-07-20T08:31:01;23.40;67.00
55828;DHT22;41758;51.992;5.890;2023-07-20T08:33:37;23.60;66.90
55828;DHT22;41758;51.992;5.890;2023-07-20T08:36:03;23.60;66.80
55828;DHT22;41758;51.992;5.890;2023-07-20T08:38:29;23.70;66.70
55828;DHT22;41758;51.992;5.890;2023-07-20T08:40:57;23.80;66.20
55828;DHT22;41758;51.992;5.890;2023-07-20T08:43:26;23.80;65.80
55828;DHT22;41758;51.992;5.890;2023-07-20T08:45:55;23.80;65.40
55828;DHT22;41758;51.992;5.890;2023-07-20T08:48:24;23.90;65.50
55828;DHT22;41758;51.992;5.890;2023-07-20T08:50:52;24.00;64.40
55828;DHT22;41758;51.992;5.890;2023-07-20T08:53:22;24.10;63.90
55828;DHT22;41758;51.992;5.890;2023-07-20T08:55:50;24.10;59.80
55828;DHT22;41758;51.992;5.890;2023-07-20T08:58:19;24.00;59.80
55828;DHT22;41758;51.992;5.890;2023-07-20T09:00:46;24.00;60.40
55828;DHT22;41758;51.992;5.890;2023-07-20T09:03:12;24.00;60.90
55828;DHT22;41758;51.992;5.890;2023-07-20T09:05:38;24.00;61.00
55828;DHT22;41758;51.992;5.890;2023-07-20T09:08:05;24.00;61.20
55828;DHT22;41758;51.992;5.890;2023-07-20T09:10:31;24.00;61.10
55828;DHT22;41758;51.992;5.890;2023-07-20T09:12:57;24.00;61.30
55828;DHT22;41758;51.992;5.890;2023-07-20T09:15:23;24.00;61.30
55828;DHT22;41758;51.992;5.890;2023-07-20T09:17:49;24.00;60.90
55828;DHT22;41758;51.992;5.890;2023-07-20T09:20:17;24.00;61.20
55828;DHT22;41758;51.992;5.890;2023-07-20T09:22:44;24.00;61.30
55828;DHT22;41758;51.992;5.890;2023-07-20T09:25:15;24.00;61.30
55828;DHT22;41758;51.992;5.890;2023-07-20T09:27:44;24.10;61.00
55828;DHT22;41758;51.992;5.890;2023-07-20T09:30:11;24.30;60.40
55828;DHT22;41758;51.992;5.890;2023-07-20T09:32:48;24.40;60.80
55828;DHT22;41758;51.992;5.890;2023-07-20T09:35:22;24.70;61.00
55828;DHT22;41758;51.992;5.890;2023-07-20T09:38:00;24.90;60.40
55828;DHT22;41758;51.992;5.890;2023-07-20T09:40:26;25.10;59.10
55828;DHT22;41758;51.992;5.890;2023-07-20T09:42:53;25.20;58.90
55828;DHT22;41758;51.992;5.890;2023-07-20T09:45:35;25.30;58.20
55828;DHT22;41758;51.992;5.890;2023-07-20T09:48:05;25.40;58.20
55828;DHT22;41758;51.992;5.890;2023-07-20T09:50:41;25.40;57.50
55828;DHT22;41758;51.992;5.890;2023-07-20T09:53:11;25.50;57.70
55828;DHT22;41758;51.992;5.890;2023-07-20T09:55:40;25.50;57.90
55828;DHT22;41758;51.992;5.890;2023-07-20T09:58:06;25.70;57.80
55828;DHT22;41758;51.992;5.890;2023-07-20T10:00:36;25.60;57.50
55828;DHT22;41758;51.992;5.890;2023-07-20T10:03:04;25.70;57.60
55828;DHT22;41758;51.992;5.890;2023-07-20T10:05:33;25.60;57.60
55828;DHT22;41758;51.992;5.890;2023-07-20T10:08:01;25.60;57.60
55828;DHT22;41758;51.992;5.890;2023-07-20T10:10:29;25.60;57.70
55828;DHT22;41758;51.992;5.890;2023-07-20T10:12:57;25.50;57.10
55828;DHT22;41758;51.992;5.890;2023-07-20T10:15:34;25.60;57.30
55828;DHT22;41758;51.992;5.890;2023-07-20T10:18:14;25.70;57.60
55828;DHT22;41758;51.992;5.890;2023-07-20T10:20:41;25.80;57.10
55828;DHT22;41758;51.992;5.890;2023-07-20T10:23:08;26.00;57.10
55828;DHT22;41758;51.992;5.890;2023-07-20T10:25:33;26.30;53.60
55828;DHT22;41758;51.992;5.890;2023-07-20T10:28:06;26.30;54.00
55828;DHT22;41758;51.992;5.890;2023-07-20T10:30:34;26.40;54.10
55828;DHT22;41758;51.992;5.890;2023-07-20T10:33:04;26.50;53.10
55828;DHT22;41758;51.992;5.890;2023-07-20T10:35:30;26.60;49.90
55828;DHT22;41758;51.992;5.890;2023-07-20T10:38:05;26.60;50.10
55828;DHT22;41758;51.992;5.890;2023-07-20T10:40:33;26.60;49.90
55828;DHT22;41758;51.992;5.890;2023-07-20T10:43:05;26.70;50.00
55828;DHT22;41758;51.992;5.890;2023-07-20T10:45:57;26.60;49.90
55828;DHT22;41758;51.992;5.890;2023-07-20T10:48:23;26.50;49.60
55828;DHT22;41758;51.992;5.890;2023-07-20T10:51:29;26.50;49.40
55828;DHT22;41758;51.992;5.890;2023-07-20T10:53:55;26.50;49.90
55828;DHT22;41758;51.992;5.890;2023-07-20T10:56:23;26.50;49.60
55828;DHT22;41758;51.992;5.890;2023-07-20T10:58:57;26.60;50.20
55828;DHT22;41758;51.992;5.890;2023-07-20T11:01:28;26.70;50.60
55828;DHT22;41758;51.992;5.890;2023-07-20T11:03:58;26.70;50.40
55828;DHT22;41758;51.992;5.890;2023-07-20T11:09:11;26.80;49.50
55828;DHT22;41758;51.992;5.890;2023-07-20T11:11:43;26.90;49.40
55828;DHT22;41758;51.992;5.890;2023-07-20T11:14:19;26.90;49.90
55828;DHT22;41758;51.992;5.890;2023-07-20T11:16:47;26.90;50.30
55828;DHT22;41758;51.992;5.890;2023-07-20T11:21:45;27.10;50.70
55828;DHT22;41758;51.992;5.890;2023-07-20T11:24:11;27.10;50.70
55828;DHT22;41758;51.992;5.890;2023-07-20T11:26:43;27.10;50.50
55828;DHT22;41758;51.992;5.890;2023-07-20T11:29:09;27.10;50.80
55828;DHT22;41758;51.992;5.890;2023-07-20T11:31:39;27.30;50.90
55828;DHT22;41758;51.992;5.890;2023-07-20T11:34:07;27.50;50.40
55828;DHT22;41758;51.992;5.890;2023-07-20T11:36:33;27.60;49.60
55828;DHT22;41758;51.992;5.890;2023-07-20T11:38:59;27.80;49.80
55828;DHT22;41758;51.992;5.890;2023-07-20T11:41:30;27.70;49.30
55828;DHT22;41758;51.992;5.890;2023-07-20T11:43:57;27.50;49.50
55828;DHT22;41758;51.992;5.890;2023-07-20T11:46:23;27.50;49.90
55828;DHT22;41758;51.992;5.890;2023-07-20T11:48:48;27.30;49.90
55828;DHT22;41758;51.992;5.890;2023-07-20T11:51:16;27.20;50.00
55828;DHT22;41758;51.992;5.890;2023-07-20T11:53:43;27.20;50.00
55828;DHT22;41758;51.992;5.890;2023-07-20T11:56:10;27.10;50.20
55828;DHT22;41758;51.992;5.890;2023-07-20T11:58:36;27.20;50.80
55828;DHT22;41758;51.992;5.890;2023-07-20T12:01:06;27.30;50.90
55828;DHT22;41758;51.992;5.890;2023-07-20T12:03:32;27.70;51.20
55828;DHT22;41758;51.992;5.890;2023-07-20T12:06:06;28.00;52.00
55828;DHT22;41758;51.992;5.890;2023-07-20T12:08:32;28.30;50.40
55828;DHT22;41758;51.992;5.890;2023-07-20T12:10:58;28.60;49.60
55828;DHT22;41758;51.992;5.890;2023-07-20T12:13:34;28.90;49.40
55828;DHT22;41758;51.992;5.890;2023-07-20T12:16:10;29.10;49.50
55828;DHT22;41758;51.992;5.890;2023-07-20T12:18:36;29.10;49.10
55828;DHT22;41758;51.992;5.890;2023-07-20T12:21:02;29.10;47.80
55828;DHT22;41758;51.992;5.890;2023-07-20T12:23:35;29.00;47.80
55828;DHT22;41758;51.992;5.890;2023-07-20T12:26:02;28.80;47.90
55828;DHT22;41758;51.992;5.890;2023-07-20T12:28:29;28.70;48.40
55828;DHT22;41758;51.992;5.890;2023-07-20T12:30:55;28.60;48.70
55828;DHT22;41758;51.992;5.890;2023-07-20T12:33:24;28.80;49.20
55828;DHT22;41758;51.992;5.890;2023-07-20T12:35:49;29.10;48.20
55828;DHT22;41758;51.992;5.890;2023-07-20T12:38:15;29.60;48.10
55828;DHT22;41758;51.992;5.890;2023-07-20T12:40:42;30.00;47.70
55828;DHT22;41758;51.992;5.890;2023-07-20T12:43:08;30.10;46.70
55828;DHT22;41758;51.992;5.890;2023-07-20T12:45:33;30.30;46.70
55828;DHT22;41758;51.992;5.890;2023-07-20T12:47:59;30.40;46.60
55828;DHT22;41758;51.992;5.890;2023-07-20T12:50:26;30.70;45.70
55828;DHT22;41758;51.992;5.890;2023-07-20T12:52:52;31.00;46.20
55828;DHT22;41758;51.992;5.890;2023-07-20T12:55:18;31.30;45.80
55828;DHT22;41758;51.992;5.890;2023-07-20T12:57:46;31.50;44.10
55828;DHT22;41758;51.992;5.890;2023-07-20T13:00:13;31.40;44.40
55828;DHT22;41758;51.992;5.890;2023-07-20T13:02:39;31.10;43.80
55828;DHT22;41758;51.992;5.890;2023-07-20T13:05:05;30.80;43.50
55828;DHT22;41758;51.992;5.890;2023-07-20T13:07:31;30.50;44.10
55828;DHT22;41758;51.992;5.890;2023-07-20T13:10:01;30.20;44.50
55828;DHT22;41758;51.992;5.890;2023-07-20T13:12:31;30.00;45.10
55828;DHT22;41758;51.992;5.890;2023-07-20T13:14:57;29.90;45.70
55828;DHT22;41758;51.992;5.890;2023-07-20T13:17:26;30.10;46.80
55828;DHT22;41758;51.992;5.890;2023-07-20T13:19:52;30.30;46.70
55828;DHT22;41758;51.992;5.890;2023-07-20T13:22:18;30.30;46.60
55828;DHT22;41758;51.992;5.890;2023-07-20T13:24:45;30.40;47.10
55828;DHT22;41758;51.992;5.890;2023-07-20T13:27:18;30.40;47.00
55828;DHT22;41758;51.992;5.890;2023-07-20T13:29:44;30.40;46.70
55828;DHT22;41758;51.992;5.890;2023-07-20T13:32:10;30.30;46.60
55828;DHT22;41758;51.992;5.890;2023-07-20T13:34:37;30.20;46.60
55828;DHT22;41758;51.992;5.890;2023-07-20T13:37:02;30.20;46.10
55828;DHT22;41758;51.992;5.890;2023-07-20T13:39:28;30.30;44.80
55828;DHT22;41758;51.992;5.890;2023-07-20T13:41:54;30.30;43.70
55828;DHT22;41758;51.992;5.890;2023-07-20T13:44:21;30.30;42.90
55828;DHT22;41758;51.992;5.890;2023-07-20T13:46:50;30.30;43.10
55828;DHT22;41758;51.992;5.890;2023-07-20T13:49:16;30.30;43.60
55828;DHT22;41758;51.992;5.890;2023-07-20T13:51:42;30.30;43.80
55828;DHT22;41758;51.992;5.890;2023-07-20T13:54:08;30.20;42.40
55828;DHT22;41758;51.992;5.890;2023-07-20T13:56:34;30.10;41.00
55828;DHT22;41758;51.992;5.890;2023-07-20T13:59:00;29.80;41.20
55828;DHT22;41758;51.992;5.890;2023-07-20T14:01:26;29.80;42.00
55828;DHT22;41758;51.992;5.890;2023-07-20T14:03:54;29.70;42.00
55828;DHT22;41758;51.992;5.890;2023-07-20T14:06:20;29.50;42.70
55828;DHT22;41758;51.992;5.890;2023-07-20T14:08:45;29.40;43.30
55828;DHT22;41758;51.992;5.890;2023-07-20T14:11:15;29.30;43.10
55828;DHT22;41758;51.992;5.890;2023-07-20T14:13:41;29.10;43.60
55828;DHT22;41758;51.992;5.890;2023-07-20T14:16:07;29.10;43.90
55828;DHT22;41758;51.992;5.890;2023-07-20T14:18:33;28.90;42.70
55828;DHT22;41758;51.992;5.890;2023-07-20T14:20:59;28.80;43.00
55828;DHT22;41758;51.992;5.890;2023-07-20T14:23:25;28.70;43.50
55828;DHT22;41758;51.992;5.890;2023-07-20T14:25:51;28.80;43.60
55828;DHT22;41758;51.992;5.890;2023-07-20T14:28:17;28.80;43.80
55828;DHT22;41758;51.992;5.890;2023-07-20T14:30:42;28.80;43.30
55828;DHT22;41758;51.992;5.890;2023-07-20T14:33:08;28.80;43.30
55828;DHT22;41758;51.992;5.890;2023-07-20T14:35:34;28.80;43.70
55828;DHT22;41758;51.992;5.890;2023-07-20T14:38:00;28.80;43.90
55828;DHT22;41758;51.992;5.890;2023-07-20T14:40:26;28.80;44.20
55828;DHT22;41758;51.992;5.890;2023-07-20T14:42:52;28.70;44.20
55828;DHT22;41758;51.992;5.890;2023-07-20T14:45:18;28.60;44.60
55828;DHT22;41758;51.992;5.890;2023-07-20T14:47:44;28.90;44.40
55828;DHT22;41758;51.992;5.890;2023-07-20T14:50:11;29.30;44.30
55828;DHT22;41758;51.992;5.890;2023-07-20T14:52:37;29.50;44.50
55828;DHT22;41758;51.992;5.890;2023-07-20T14:55:03;29.60;44.80
55828;DHT22;41758;51.992;5.890;2023-07-20T14:57:29;29.60;44.70
55828;DHT22;41758;51.992;5.890;2023-07-20T14:59:54;29.60;44.60
55828;DHT22;41758;51.992;5.890;2023-07-20T15:02:20;29.70;44.80
55828;DHT22;41758;51.992;5.890;2023-07-20T15:04:47;30.20;44.80
55828;DHT22;41758;51.992;5.890;2023-07-20T15:07:18;30.80;44.80
55828;DHT22;41758;51.992;5.890;2023-07-20T15:09:44;31.30;43.70
55828;DHT22;41758;51.992;5.890;2023-07-20T15:12:10;31.70;43.50
55828;DHT22;41758;51.992;5.890;2023-07-20T15:14:41;32.10;43.60
55828;DHT22;41758;51.992;5.890;2023-07-20T15:17:08;32.50;41.10
55828;DHT22;41758;51.992;5.890;2023-07-20T15:19:34;32.70;40.90
55828;DHT22;41758;51.992;5.890;2023-07-20T15:22:01;32.40;40.70
55828;DHT22;41758;51.992;5.890;2023-07-20T15:24:32;32.20;40.50
55828;DHT22;41758;51.992;5.890;2023-07-20T15:26:57;31.90;40.80
55828;DHT22;41758;51.992;5.890;2023-07-20T15:29:24;31.80;41.30
55828;DHT22;41758;51.992;5.890;2023-07-20T15:31:50;31.80;41.60
55828;DHT22;41758;51.992;5.890;2023-07-20T15:34:16;31.70;40.90
55828;DHT22;41758;51.992;5.890;2023-07-20T15:36:41;31.70;41.20
55828;DHT22;41758;51.992;5.890;2023-07-20T15:39:10;31.80;41.70
55828;DHT22;41758;51.992;5.890;2023-07-20T15:41:36;32.00;40.30
55828;DHT22;41758;51.992;5.890;2023-07-20T15:44:02;32.00;40.30